sensor_id;sensor_type;location;lat;lon;timestamp;pressure;altitude;pressure_sealevel;temperature;humidity
75815;BME280;70031;45.570;14.228;2023-07-08T00:00:38;97648.72;;;11.98;100.00
75815;BME280;70031;45.570;14.228;2023-07-08T00:02:40;97657.38;;;11.90;100.00
75815;BME280;70031;45.570;14.228;2023-07-08T00:04:42;97658.91;;;12.06;100.00
75815;BME280;70031;45.570;14.228;2023-07-08T00:06:42;97664.28;;;12.17;100.00
75815;BME280;70031;45.570;14.228;2023-07-08T00:08:42;97668.31;;;12.19;100.00
75815;BME280;70031;45.570;14.228;2023-07-08T00:10:43;97657.81;;;12.18;100.00
75815;BME280;70031;45.570;14.228;2023-07-08T00:12:45;97662.13;;;12.19;100.00
75815;BME280;70031;45.570;14.228;2023-07-08T00:14:46;97667.75;;;12.22;100.00
75815;BME280;70031;45.570;14.228;2023-07-08T00:16:47;97672.63;;;12.20;100.00
75815;BME280;70031;45.570;14.228;2023-07-08T00:18:47;97673.03;;;11.83;100.00
75815;BME280;70031;45.570;14.228;2023-07-08T00:20:49;97675.22;;;11.66;100.00
75815;BME280;70031;45.570;14.228;2023-07-08T00:22:50;97679.28;;;11.63;100.00
75815;BME280;70031;45.570;14.228;2023-07-08T00:24:50;97680.66;;;11.61;100.00
75815;BME280;70031;45.570;14.228;2023-07-08T00:26:51;97675.81;;;11.52;100.00
75815;BME280;70031;45.570;14.228;2023-07-08T00:28:52;97679.59;;;11.51;100.00
75815;BME280;70031;45.570;14.228;2023-07-08T00:30:52;97677.13;;;11.65;100.00
75815;BME280;70031;45.570;14.228;2023-07-08T00:32:55;97689.78;;;11.65;100.00
75815;BME280;70031;45.570;14.228;2023-07-08T00:34:55;97681.75;;;11.60;100.00
75815;BME280;70031;45.570;14.228;2023-07-08T00:36:56;97680.09;;;11.64;100.00
75815;BME280;70031;45.570;14.228;2023-07-08T00:38:57;97679.53;;;11.72;100.00
75815;BME280;70031;45.570;14.228;2023-07-08T00:41:11;97689.81;;;11.49;100.00
75815;BME280;70031;45.570;14.228;2023-07-08T00:43:13;97688.50;;;11.32;100.00
75815;BME280;70031;45.570;14.228;2023-07-08T00:47:28;97689.34;;;11.22;100.00
75815;BME280;70031;45.570;14.228;2023-07-08T00:49:36;97690.94;;;11.28;100.00
75815;BME280;70031;45.570;14.228;2023-07-08T00:51:39;97697.44;;;11.27;100.00
75815;BME280;70031;45.570;14.228;2023-07-08T00:53:40;97700.66;;;11.34;100.00
75815;BME280;70031;45.570;14.228;2023-07-08T00:55:40;97706.56;;;11.31;100.00
75815;BME280;70031;45.570;14.228;2023-07-08T00:57:43;97697.97;;;11.19;100.00
75815;BME280;70031;45.570;14.228;2023-07-08T01:00:04;97717.09;;;11.17;100.00
75815;BME280;70031;45.570;14.228;2023-07-08T01:02:08;97717.91;;;11.18;100.00
75815;BME280;70031;45.570;14.228;2023-07-08T01:04:13;97719.53;;;11.19;100.00
75815;BME280;70031;45.570;14.228;2023-07-08T01:06:16;97715.72;;;11.30;100.00
75815;BME280;70031;45.570;14.228;2023-07-08T01:08:17;97726.22;;;11.42;100.00
75815;BME280;70031;45.570;14.228;2023-07-08T01:10:22;97734.84;;;11.49;100.00
75815;BME280;70031;45.570;14.228;2023-07-08T01:12:29;97739.16;;;11.50;100.00
75815;BME280;70031;45.570;14.228;2023-07-08T01:14:34;97740.22;;;11.49;100.00
75815;BME280;70031;45.570;14.228;2023-07-08T01:16:36;97751.81;;;11.54;100.00
75815;BME280;70031;45.570;14.228;2023-07-08T01:18:36;97753.19;;;11.47;100.00
75815;BME280;70031;45.570;14.228;2023-07-08T01:20:37;97752.66;;;11.35;100.00
75815;BME280;70031;45.570;14.228;2023-07-08T01:22:37;97751.31;;;11.22;100.00
75815;BME280;70031;45.570;14.228;2023-07-08T01:24:41;97745.66;;;11.03;100.00
75815;BME280;70031;45.570;14.228;2023-07-08T01:26:44;97748.59;;;10.96;100.00
75815;BME280;70031;45.570;14.228;2023-07-08T01:28:45;97747.25;;;11.04;100.00
75815;BME280;70031;45.570;14.228;2023-07-08T01:30:46;97746.19;;;11.15;100.00
75815;BME280;70031;45.570;14.228;2023-07-08T01:32:49;97743.78;;;11.19;100.00
75815;BME280;70031;45.570;14.228;2023-07-08T01:34:52;97733.53;;;11.11;100.00
75815;BME280;70031;45.570;14.228;2023-07-08T01:37:02;97743.75;;;10.98;100.00
75815;BME280;70031;45.570;14.228;2023-07-08T01:39:04;97729.72;;;10.81;100.00
75815;BME280;70031;45.570;14.228;2023-07-08T01:41:05;97732.44;;;10.76;100.00
75815;BME280;70031;45.570;14.228;2023-07-08T01:43:06;97722.19;;;10.88;100.00
75815;BME280;70031;45.570;14.228;2023-07-08T01:45:18;97720.31;;;10.99;100.00
75815;BME280;70031;45.570;14.228;2023-07-08T01:47:20;97708.22;;;11.02;100.00
75815;BME280;70031;45.570;14.228;2023-07-08T01:49:22;97712.50;;;10.97;100.00
75815;BME280;70031;45.570;14.228;2023-07-08T01:51:25;97713.31;;;10.88;100.00
75815;BME280;70031;45.570;14.228;2023-07-08T01:53:32;97703.63;;;10.87;100.00
75815;BME280;70031;45.570;14.228;2023-07-08T01:55:32;97705.78;;;10.80;100.00
75815;BME280;70031;45.570;14.228;2023-07-08T01:57:33;97699.84;;;10.83;100.00
75815;BME280;70031;45.570;14.228;2023-07-08T01:59:33;97690.41;;;10.90;100.00
75815;BME280;70031;45.570;14.228;2023-07-08T02:01:33;97681.81;;;10.93;100.00
75815;BME280;70031;45.570;14.228;2023-07-08T02:03:34;97677.25;;;10.94;100.00
75815;BME280;70031;45.570;14.228;2023-07-08T02:05:35;97678.56;;;10.96;100.00
75815;BME280;70031;45.570;14.228;2023-07-08T02:07:36;97679.38;;;11.07;100.00
75815;BME280;70031;45.570;14.228;2023-07-08T02:09:36;97677.50;;;11.03;100.00
75815;BME280;70031;45.570;14.228;2023-07-08T02:11:37;97667.53;;;10.98;100.00
75815;BME280;70031;45.570;14.228;2023-07-08T02:13:37;97663.22;;;10.87;100.00
75815;BME280;70031;45.570;14.228;2023-07-08T02:15:37;97655.44;;;10.85;100.00
75815;BME280;70031;45.570;14.228;2023-07-08T02:17:38;97653.00;;;10.79;100.00
75815;BME280;70031;45.570;14.228;2023-07-08T02:19:38;97648.94;;;10.56;100.00
75815;BME280;70031;45.570;14.228;2023-07-08T02:21:39;97659.69;;;10.40;100.00
75815;BME280;70031;45.570;14.228;2023-07-08T02:23:39;97655.63;;;10.33;100.00
75815;BME280;70031;45.570;14.228;2023-07-08T02:25:40;97654.31;;;10.46;100.00
75815;BME280;70031;45.570;14.228;2023-07-08T02:27:40;97650.81;;;10.55;100.00
75815;BME280;70031;45.570;14.228;2023-07-08T02:29:41;97647.34;;;10.60;100.00
75815;BME280;70031;45.570;14.228;2023-07-08T02:31:41;97652.16;;;10.58;100.00
75815;BME280;70031;45.570;14.228;2023-07-08T02:33:42;97658.38;;;10.53;100.00
75815;BME280;70031;45.570;14.228;2023-07-08T02:35:43;97667.81;;;10.96;100.00
75815;BME280;70031;45.570;14.228;2023-07-08T02:37:43;97657.03;;;10.81;100.00
75815;BME280;70031;45.570;14.228;2023-07-08T02:39:44;97662.44;;;10.76;100.00
75815;BME280;70031;45.570;14.228;2023-07-08T02:41:44;97674.81;;;10.87;100.00
75815;BME280;70031;45.570;14.228;2023-07-08T02:43:45;97665.63;;;11.14;100.00
75815;BME280;70031;45.570;14.228;2023-07-08T02:45:45;97668.06;;;11.10;100.00
75815;BME280;70031;45.570;14.228;2023-07-08T02:47:48;97666.44;;;10.99;100.00
75815;BME280;70031;45.570;14.228;2023-07-08T02:49:49;97675.34;;;10.89;100.00
75815;BME280;70031;45.570;14.228;2023-07-08T02:51:50;97683.16;;;10.91;100.00
75815;BME280;70031;45.570;14.228;2023-07-08T02:53:50;97679.13;;;10.93;100.00
75815;BME280;70031;45.570;14.228;2023-07-08T02:55:51;97667.00;;;10.96;100.00
75815;BME280;70031;45.570;14.228;2023-07-08T02:57:51;97668.91;;;11.01;100.00
75815;BME280;70031;45.570;14.228;2023-07-08T02:59:52;97664.03;;;10.97;100.00
75815;BME280;70031;45.570;14.228;2023-07-08T03:01:52;97665.66;;;10.88;100.00
75815;BME280;70031;45.570;14.228;2023-07-08T03:03:52;97672.66;;;10.69;100.00
75815;BME280;70031;45.570;14.228;2023-07-08T03:06:02;97660.78;;;10.55;100.00
75815;BME280;70031;45.570;14.228;2023-07-08T03:08:02;97666.69;;;10.47;100.00
75815;BME280;70031;45.570;14.228;2023-07-08T03:10:03;97668.59;;;10.51;100.00
75815;BME280;70031;45.570;14.228;2023-07-08T03:12:05;97663.22;;;10.61;100.00
75815;BME280;70031;45.570;14.228;2023-07-08T03:14:06;97659.72;;;10.66;100.00
75815;BME280;70031;45.570;14.228;2023-07-08T03:16:06;97660.78;;;10.65;100.00
75815;BME280;70031;45.570;14.228;2023-07-08T03:18:12;97657.03;;;10.66;100.00
75815;BME280;70031;45.570;14.228;2023-07-08T03:20:12;97658.66;;;10.72;100.00
75815;BME280;70031;45.570;14.228;2023-07-08T03:22:14;97662.16;;;10.73;100.00
75815;BME280;70031;45.570;14.228;2023-07-08T03:24:14;97657.56;;;10.53;100.00
75815;BME280;70031;45.570;14.228;2023-07-08T03:26:23;97664.56;;;10.54;100.00
75815;BME280;70031;45.570;14.228;2023-07-08T03:28:24;97661.59;;;10.55;100.00
75815;BME280;70031;45.570;14.228;2023-07-08T03:30:26;97648.66;;;10.47;100.00
75815;BME280;70031;45.570;14.228;2023-07-08T03:32:26;97648.13;;;10.45;100.00
75815;BME280;70031;45.570;14.228;2023-07-08T03:34:27;97648.38;;;10.28;100.00
75815;BME280;70031;45.570;14.228;2023-07-08T03:36:27;97660.22;;;10.27;100.00
75815;BME280;70031;45.570;14.228;2023-07-08T03:38:27;97652.66;;;10.24;100.00
75815;BME280;70031;45.570;14.228;2023-07-08T03:40:28;97651.84;;;10.34;100.00
75815;BME280;70031;45.570;14.228;2023-07-08T03:42:29;97652.19;;;10.43;100.00
75815;BME280;70031;45.570;14.228;2023-07-08T03:44:30;97659.72;;;10.56;100.00
75815;BME280;70031;45.570;14.228;2023-07-08T03:46:30;97654.88;;;10.63;100.00
75815;BME280;70031;45.570;14.228;2023-07-08T03:48:30;97636.84;;;10.63;100.00
75815;BME280;70031;45.570;14.228;2023-07-08T03:50:31;97641.97;;;10.70;100.00
75815;BME280;70031;45.570;14.228;2023-07-08T03:52:31;97650.56;;;10.67;100.00
75815;BME280;70031;45.570;14.228;2023-07-08T03:54:31;97643.84;;;10.64;100.00
75815;BME280;70031;45.570;14.228;2023-07-08T03:56:32;97635.50;;;10.61;100.00
75815;BME280;70031;45.570;14.228;2023-07-08T03:58:32;97634.69;;;10.60;100.00
75815;BME280;70031;45.570;14.228;2023-07-08T04:00:33;97638.97;;;10.56;100.00
75815;BME280;70031;45.570;14.228;2023-07-08T04:02:33;97642.22;;;10.43;100.00
75815;BME280;70031;45.570;14.228;2023-07-08T04:04:33;97632.78;;;10.35;100.00
75815;BME280;70031;45.570;14.228;2023-07-08T04:06:35;97633.88;;;10.34;100.00
75815;BME280;70031;45.570;14.228;2023-07-08T04:08:36;97633.84;;;10.50;100.00
75815;BME280;70031;45.570;14.228;2023-07-08T04:10:36;97632.53;;;10.62;100.00
75815;BME280;70031;45.570;14.228;2023-07-08T04:12:37;97627.44;;;10.61;100.00
75815;BME280;70031;45.570;14.228;2023-07-08T04:14:38;97634.13;;;10.48;100.00
75815;BME280;70031;45.570;14.228;2023-07-08T04:16:55;97633.59;;;10.41;100.00
75815;BME280;70031;45.570;14.228;2023-07-08T04:18:57;97627.66;;;10.39;100.00
75815;BME280;70031;45.570;14.228;2023-07-08T04:20:58;97627.94;;;10.37;100.00
75815;BME280;70031;45.570;14.228;2023-07-08T04:22:59;97629.56;;;10.38;100.00
75815;BME280;70031;45.570;14.228;2023-07-08T04:24:59;97631.47;;;10.43;100.00
75815;BME280;70031;45.570;14.228;2023-07-08T04:26:59;97633.31;;;10.48;100.00
75815;BME280;70031;45.570;14.228;2023-07-08T04:29:00;97633.34;;;10.53;100.00
75815;BME280;70031;45.570;14.228;2023-07-08T04:31:00;97637.66;;;10.64;100.00
75815;BME280;70031;45.570;14.228;2023-07-08T04:33:01;97637.91;;;10.83;100.00
75815;BME280;70031;45.570;14.228;2023-07-08T04:35:01;97641.13;;;11.00;100.00
75815;BME280;70031;45.570;14.228;2023-07-08T04:37:03;97634.41;;;11.13;100.00
75815;BME280;70031;45.570;14.228;2023-07-08T04:39:06;97629.81;;;11.18;100.00
75815;BME280;70031;45.570;14.228;2023-07-08T04:41:06;97623.88;;;11.27;100.00
75815;BME280;70031;45.570;14.228;2023-07-08T04:43:07;97616.31;;;11.34;100.00
75815;BME280;70031;45.570;14.228;2023-07-08T04:45:07;97623.56;;;11.43;100.00
75815;BME280;70031;45.570;14.228;2023-07-08T04:47:08;97625.13;;;11.54;100.00
75815;BME280;70031;45.570;14.228;2023-07-08T04:49:09;97620.50;;;11.65;100.00
75815;BME280;70031;45.570;14.228;2023-07-08T04:51:09;97643.41;;;11.73;100.00
75815;BME280;70031;45.570;14.228;2023-07-08T04:53:11;97638.81;;;11.84;100.00
75815;BME280;70031;45.570;14.228;2023-07-08T04:55:13;97630.38;;;11.95;100.00
75815;BME280;70031;45.570;14.228;2023-07-08T04:57:13;97624.84;;;12.26;100.00
75815;BME280;70031;45.570;14.228;2023-07-08T04:59:18;97607.25;;;12.33;100.00
75815;BME280;70031;45.570;14.228;2023-07-08T05:01:18;97601.56;;;12.35;100.00
75815;BME280;70031;45.570;14.228;2023-07-08T05:03:19;97606.97;;;12.35;100.00
75815;BME280;70031;45.570;14.228;2023-07-08T05:05:20;97608.53;;;12.41;100.00
75815;BME280;70031;45.570;14.228;2023-07-08T05:07:20;97607.69;;;12.46;100.00
75815;BME280;70031;45.570;14.228;2023-07-08T05:09:20;97612.06;;;12.42;100.00
75815;BME280;70031;45.570;14.228;2023-07-08T05:11:23;97616.84;;;12.50;100.00
75815;BME280;70031;45.570;14.228;2023-07-08T05:13:23;97612.28;;;12.45;100.00
75815;BME280;70031;45.570;14.228;2023-07-08T05:15:24;97608.22;;;12.48;100.00
75815;BME280;70031;45.570;14.228;2023-07-08T05:17:24;97614.16;;;12.50;100.00
75815;BME280;70031;45.570;14.228;2023-07-08T05:19:25;97620.03;;;12.57;100.00
75815;BME280;70031;45.570;14.228;2023-07-08T05:21:25;97614.88;;;12.60;100.00
75815;BME280;70031;45.570;14.228;2023-07-08T05:23:27;97611.47;;;12.79;100.00
75815;BME280;70031;45.570;14.228;2023-07-08T05:25:31;97616.00;;;12.88;100.00
75815;BME280;70031;45.570;14.228;2023-07-08T05:27:32;97615.06;;;13.03;100.00
75815;BME280;70031;45.570;14.228;2023-07-08T05:29:35;97619.22;;;13.25;100.00
75815;BME280;70031;45.570;14.228;2023-07-08T05:31:36;97616.72;;;13.28;100.00
75815;BME280;70031;45.570;14.228;2023-07-08T05:33:36;97613.34;;;13.41;100.00
75815;BME280;70031;45.570;14.228;2023-07-08T05:35:37;97604.63;;;13.49;100.00
75815;BME280;70031;45.570;14.228;2023-07-08T05:37:37;97617.94;;;13.65;100.00
75815;BME280;70031;45.570;14.228;2023-07-08T05:39:40;97622.44;;;13.74;100.00
75815;BME280;70031;45.570;14.228;2023-07-08T05:41:40;97615.84;;;13.81;100.00
75815;BME280;70031;45.570;14.228;2023-07-08T05:43:40;97613.63;;;14.06;100.00
75815;BME280;70031;45.570;14.228;2023-07-08T05:45:41;97616.06;;;14.08;100.00
75815;BME280;70031;45.570;14.228;2023-07-08T05:47:41;97613.50;;;14.17;100.00
75815;BME280;70031;45.570;14.228;2023-07-08T05:49:42;97619.22;;;14.15;100.00
75815;BME280;70031;45.570;14.228;2023-07-08T05:51:45;97623.09;;;14.47;100.00
75815;BME280;70031;45.570;14.228;2023-07-08T05:53:46;97620.66;;;15.29;100.00
75815;BME280;70031;45.570;14.228;2023-07-08T05:55:48;97619.50;;;15.90;93.42
75815;BME280;70031;45.570;14.228;2023-07-08T05:57:48;97620.69;;;17.06;86.41
75815;BME280;70031;45.570;14.228;2023-07-08T05:59:49;97607.34;;;17.67;84.53
75815;BME280;70031;45.570;14.228;2023-07-08T06:01:50;97608.34;;;18.54;80.08
75815;BME280;70031;45.570;14.228;2023-07-08T06:03:51;97607.00;;;19.21;77.19
75815;BME280;70031;45.570;14.228;2023-07-08T06:05:52;97592.63;;;19.88;72.92
75815;BME280;70031;45.570;14.228;2023-07-08T06:07:52;97595.59;;;20.54;69.75
75815;BME280;70031;45.570;14.228;2023-07-08T06:09:53;97604.06;;;20.94;70.03
75815;BME280;70031;45.570;14.228;2023-07-08T06:11:56;97597.06;;;21.18;68.78
75815;BME280;70031;45.570;14.228;2023-07-08T06:13:56;97596.59;;;21.03;63.72
75815;BME280;70031;45.570;14.228;2023-07-08T06:15:58;97591.44;;;20.48;70.65
75815;BME280;70031;45.570;14.228;2023-07-08T06:17:58;97591.50;;;20.93;64.85
75815;BME280;70031;45.570;14.228;2023-07-08T06:20:02;97588.72;;;21.84;61.18
75815;BME280;70031;45.570;14.228;2023-07-08T06:22:03;97588.97;;;21.79;62.16
75815;BME280;70031;45.570;14.228;2023-07-08T06:24:03;97583.72;;;21.86;63.33
75815;BME280;70031;45.570;14.228;2023-07-08T06:26:04;97569.53;;;22.61;63.40
75815;BME280;70031;45.570;14.228;2023-07-08T06:28:04;97573.94;;;23.21;59.53
75815;BME280;70031;45.570;14.228;2023-07-08T06:30:05;97575.94;;;23.84;57.08
75815;BME280;70031;45.570;14.228;2023-07-08T06:32:06;97569.66;;;23.84;56.24
75815;BME280;70031;45.570;14.228;2023-07-08T06:34:07;97569.38;;;23.73;56.69
75815;BME280;70031;45.570;14.228;2023-07-08T06:36:08;97568.94;;;22.67;56.31
75815;BME280;70031;45.570;14.228;2023-07-08T06:38:10;97559.28;;;21.44;62.36
75815;BME280;70031;45.570;14.228;2023-07-08T06:40:11;97558.19;;;20.79;65.41
75815;BME280;70031;45.570;14.228;2023-07-08T06:42:11;97550.59;;;20.43;66.96
75815;BME280;70031;45.570;14.228;2023-07-08T06:44:14;97559.09;;;20.50;66.71
75815;BME280;70031;45.570;14.228;2023-07-08T06:46:32;97550.94;;;21.41;63.78
75815;BME280;70031;45.570;14.228;2023-07-08T06:48:32;97550.41;;;20.69;67.68
75815;BME280;70031;45.570;14.228;2023-07-08T06:50:33;97547.63;;;23.05;58.37
75815;BME280;70031;45.570;14.228;2023-07-08T06:52:34;97547.28;;;24.20;54.76
75815;BME280;70031;45.570;14.228;2023-07-08T06:54:35;97551.78;;;22.30;60.62
75815;BME280;70031;45.570;14.228;2023-07-08T06:56:35;97550.75;;;23.50;56.63
75815;BME280;70031;45.570;14.228;2023-07-08T06:58:36;97549.22;;;23.21;55.63
75815;BME280;70031;45.570;14.228;2023-07-08T07:00:36;97547.94;;;23.63;58.56
75815;BME280;70031;45.570;14.228;2023-07-08T07:02:38;97549.16;;;24.16;54.39
75815;BME280;70031;45.570;14.228;2023-07-08T07:05:06;97550.78;;;25.37;54.65
75815;BME280;70031;45.570;14.228;2023-07-08T07:07:06;97550.88;;;25.40;47.49
75815;BME280;70031;45.570;14.228;2023-07-08T07:09:07;97551.38;;;24.84;46.83
75815;BME280;70031;45.570;14.228;2023-07-08T07:11:07;97554.47;;;25.02;49.40
75815;BME280;70031;45.570;14.228;2023-07-08T07:13:08;97541.53;;;25.03;47.66
75815;BME280;70031;45.570;14.228;2023-07-08T07:15:08;97542.13;;;24.54;46.97
75815;BME280;70031;45.570;14.228;2023-07-08T07:17:09;97539.16;;;24.62;46.39
75815;BME280;70031;45.570;14.228;2023-07-08T07:19:09;97536.97;;;23.98;49.68
75815;BME280;70031;45.570;14.228;2023-07-08T07:21:09;97539.66;;;24.14;54.87
75815;BME280;70031;45.570;14.228;2023-07-08T07:23:10;97545.50;;;25.05;49.62
75815;BME280;70031;45.570;14.228;2023-07-08T07:25:10;97535.91;;;24.76;53.02
75815;BME280;70031;45.570;14.228;2023-07-08T07:27:11;97542.50;;;25.14;49.07
75815;BME280;70031;45.570;14.228;2023-07-08T07:29:46;97530.09;;;25.46;46.09
75815;BME280;70031;45.570;14.228;2023-07-08T07:31:47;97527.78;;;24.83;52.41
75815;BME280;70031;45.570;14.228;2023-07-08T07:33:48;97531.91;;;26.15;48.12
75815;BME280;70031;45.570;14.228;2023-07-08T07:35:48;97527.41;;;25.99;44.17
75815;BME280;70031;45.570;14.228;2023-07-08T07:37:49;97520.34;;;26.32;42.20
75815;BME280;70031;45.570;14.228;2023-07-08T07:39:49;97513.19;;;26.27;44.90
75815;BME280;70031;45.570;14.228;2023-07-08T07:41:59;97515.75;;;25.60;49.13
75815;BME280;70031;45.570;14.228;2023-07-08T07:43:59;97517.88;;;26.53;48.17
75815;BME280;70031;45.570;14.228;2023-07-08T07:46:03;97508.06;;;25.73;47.61
75815;BME280;70031;45.570;14.228;2023-07-08T07:48:07;97503.63;;;24.34;56.58
75815;BME280;70031;45.570;14.228;2023-07-08T07:50:09;97509.53;;;23.66;49.21
75815;BME280;70031;45.570;14.228;2023-07-08T07:52:29;97496.38;;;22.81;50.17
75815;BME280;70031;45.570;14.228;2023-07-08T07:54:30;97493.56;;;24.07;48.88
75815;BME280;70031;45.570;14.228;2023-07-08T07:56:31;97494.31;;;23.69;50.26
75815;BME280;70031;45.570;14.228;2023-07-08T07:58:33;97490.91;;;25.11;48.82
75815;BME280;70031;45.570;14.228;2023-07-08T08:00:34;97489.38;;;25.13;53.22
75815;BME280;70031;45.570;14.228;2023-07-08T08:02:34;97485.47;;;25.14;48.56
75815;BME280;70031;45.570;14.228;2023-07-08T08:04:35;97481.38;;;25.28;50.38
75815;BME280;70031;45.570;14.228;2023-07-08T08:06:36;97489.75;;;25.12;47.61
75815;BME280;70031;45.570;14.228;2023-07-08T08:08:37;97492.88;;;25.83;52.62
75815;BME280;70031;45.570;14.228;2023-07-08T08:10:38;97488.56;;;26.42;47.70
75815;BME280;70031;45.570;14.228;2023-07-08T08:12:38;97486.75;;;26.26;47.19
75815;BME280;70031;45.570;14.228;2023-07-08T08:14:39;97487.25;;;25.26;47.23
75815;BME280;70031;45.570;14.228;2023-07-08T08:16:39;97480.19;;;24.83;48.45
75815;BME280;70031;45.570;14.228;2023-07-08T08:18:40;97480.66;;;25.08;48.74
75815;BME280;70031;45.570;14.228;2023-07-08T08:20:40;97484.28;;;25.65;50.35
75815;BME280;70031;45.570;14.228;2023-07-08T08:22:43;97490.63;;;25.16;51.09
75815;BME280;70031;45.570;14.228;2023-07-08T08:24:44;97489.50;;;25.20;48.81
75815;BME280;70031;45.570;14.228;2023-07-08T08:26:44;97487.78;;;26.45;46.21
75815;BME280;70031;45.570;14.228;2023-07-08T08:28:45;97496.72;;;26.04;46.90
75815;BME280;70031;45.570;14.228;2023-07-08T08:30:49;97494.50;;;26.81;44.38
75815;BME280;70031;45.570;14.228;2023-07-08T08:32:50;97499.72;;;27.27;49.56
75815;BME280;70031;45.570;14.228;2023-07-08T08:34:50;97486.81;;;27.96;39.87
75815;BME280;70031;45.570;14.228;2023-07-08T08:36:51;97501.97;;;26.43;41.19
75815;BME280;70031;45.570;14.228;2023-07-08T08:38:55;97492.03;;;27.50;42.36
75815;BME280;70031;45.570;14.228;2023-07-08T08:41:03;97492.69;;;27.84;39.73
75815;BME280;70031;45.570;14.228;2023-07-08T08:43:06;97487.84;;;27.70;46.04
75815;BME280;70031;45.570;14.228;2023-07-08T08:45:15;97491.69;;;26.40;41.79
75815;BME280;70031;45.570;14.228;2023-07-08T08:49:39;97493.69;;;26.43;43.64
75815;BME280;70031;45.570;14.228;2023-07-08T08:51:42;97497.78;;;25.96;43.49
75815;BME280;70031;45.570;14.228;2023-07-08T08:53:56;97497.75;;;25.93;48.11
75815;BME280;70031;45.570;14.228;2023-07-08T08:56:14;97491.50;;;26.26;43.98
75815;BME280;70031;45.570;14.228;2023-07-08T08:58:47;97483.66;;;26.99;45.24
75815;BME280;70031;45.570;14.228;2023-07-08T09:01:01;97481.88;;;26.43;43.67
75815;BME280;70031;45.570;14.228;2023-07-08T09:03:10;97476.66;;;27.08;46.75
75815;BME280;70031;45.570;14.228;2023-07-08T09:05:13;97476.81;;;27.74;42.39
75815;BME280;70031;45.570;14.228;2023-07-08T09:07:18;97477.16;;;26.47;42.08
75815;BME280;70031;45.570;14.228;2023-07-08T09:09:26;97479.91;;;26.43;43.98
75815;BME280;70031;45.570;14.228;2023-07-08T09:11:52;97474.41;;;26.47;42.53
75815;BME280;70031;45.570;14.228;2023-07-08T09:13:57;97472.38;;;26.40;43.00
75815;BME280;70031;45.570;14.228;2023-07-08T09:16:05;97470.09;;;27.24;44.30
75815;BME280;70031;45.570;14.228;2023-07-08T09:18:23;97464.88;;;26.74;45.21
75815;BME280;70031;45.570;14.228;2023-07-08T09:20:58;97470.22;;;26.26;45.23
75815;BME280;70031;45.570;14.228;2023-07-08T09:23:22;97461.88;;;26.90;40.48
75815;BME280;70031;45.570;14.228;2023-07-08T09:25:52;97463.19;;;26.66;43.73
75815;BME280;70031;45.570;14.228;2023-07-08T09:27:55;97472.47;;;26.84;41.16
75815;BME280;70031;45.570;14.228;2023-07-08T09:30:39;97468.59;;;26.93;43.41
75815;BME280;70031;45.570;14.228;2023-07-08T09:32:39;97475.16;;;27.14;43.31
75815;BME280;70031;45.570;14.228;2023-07-08T09:35:03;97475.50;;;27.13;46.31
75815;BME280;70031;45.570;14.228;2023-07-08T09:37:29;97480.41;;;27.82;50.55
75815;BME280;70031;45.570;14.228;2023-07-08T09:40:00;97479.66;;;28.75;41.90
75815;BME280;70031;45.570;14.228;2023-07-08T09:42:06;97472.91;;;28.66;41.42
75815;BME280;70031;45.570;14.228;2023-07-08T09:44:17;97479.53;;;28.36;46.92
75815;BME280;70031;45.570;14.228;2023-07-08T09:46:36;97486.88;;;29.08;41.59
75815;BME280;70031;45.570;14.228;2023-07-08T09:48:37;97490.44;;;29.09;42.87
75815;BME280;70031;45.570;14.228;2023-07-08T09:50:37;97476.91;;;28.86;39.21
75815;BME280;70031;45.570;14.228;2023-07-08T09:52:50;97472.94;;;28.76;40.01
75815;BME280;70031;45.570;14.228;2023-07-08T09:54:57;97473.75;;;27.93;41.27
75815;BME280;70031;45.570;14.228;2023-07-08T09:57:05;97462.84;;;27.56;40.92
75815;BME280;70031;45.570;14.228;2023-07-08T09:59:16;97468.69;;;28.10;43.25
75815;BME280;70031;45.570;14.228;2023-07-08T10:01:25;97465.47;;;29.09;47.23
75815;BME280;70031;45.570;14.228;2023-07-08T10:03:31;97474.22;;;29.22;37.57
75815;BME280;70031;45.570;14.228;2023-07-08T10:05:38;97472.22;;;29.08;39.31
75815;BME280;70031;45.570;14.228;2023-07-08T10:07:48;97472.59;;;28.99;42.03
75815;BME280;70031;45.570;14.228;2023-07-08T10:09:52;97467.06;;;29.17;39.35
75815;BME280;70031;45.570;14.228;2023-07-08T10:11:59;97465.09;;;29.14;44.93
75815;BME280;70031;45.570;14.228;2023-07-08T10:14:05;97464.63;;;27.86;40.02
75815;BME280;70031;45.570;14.228;2023-07-08T10:16:17;97468.50;;;28.50;42.76
75815;BME280;70031;45.570;14.228;2023-07-08T10:18:28;97464.19;;;28.57;41.96
75815;BME280;70031;45.570;14.228;2023-07-08T10:25:32;97451.56;;;27.28;42.39
75815;BME280;70031;45.570;14.228;2023-07-08T10:29:54;97446.41;;;28.75;49.44
75815;BME280;70031;45.570;14.228;2023-07-08T10:32:15;97446.47;;;29.00;42.69
75815;BME280;70031;45.570;14.228;2023-07-08T10:35:12;97442.88;;;28.89;44.62
75815;BME280;70031;45.570;14.228;2023-07-08T10:44:26;97448.84;;;27.93;40.71
75815;BME280;70031;45.570;14.228;2023-07-08T10:53:35;97442.94;;;29.07;39.93
75815;BME280;70031;45.570;14.228;2023-07-08T11:05:10;97439.19;;;27.66;45.24
75815;BME280;70031;45.570;14.228;2023-07-08T11:07:42;97441.38;;;27.97;40.52
75815;BME280;70031;45.570;14.228;2023-07-08T11:09:58;97434.41;;;27.56;45.54
75815;BME280;70031;45.570;14.228;2023-07-08T11:14:41;97433.31;;;28.51;43.02
75815;BME280;70031;45.570;14.228;2023-07-08T11:16:47;97434.91;;;28.59;43.25
75815;BME280;70031;45.570;14.228;2023-07-08T11:18:52;97423.84;;;28.77;39.67
75815;BME280;70031;45.570;14.228;2023-07-08T11:21:05;97426.59;;;28.63;41.67